Time;durP1;ratioP1;P1;durP2;ratioP2;P2;SDS_P1;SDS_P2;PMS_P1;PMS_P2;Temp;Humidity;BMP_temperature;BMP_pressure;BME280_temperature;BME280_humidity;BME280_pressure;Samples;Min_cycle;Max_cycle;Signal;HPM_P1;HPM_P2
2022/03/03 00:01:59;;;;;;;51.88;31.33;;;77.30;2227.20;;;;;;5011374;28;20026;-85
2022/03/03 00:04:25;;;;;;;53.60;32.97;;;77.30;2227.20;;;;;;5014594;28;20026;-83
2022/03/03 00:06:51;;;;;;;62.50;31.55;;;77.30;2227.20;;;;;;5016595;28;20042;-79
2022/03/03 00:09:17;;;;;;;57.35;33.33;;;77.30;2227.20;;;;;;5011337;28;20086;-85
2022/03/03 00:11:42;;;;;;;61.00;33.55;;;77.30;2227.20;;;;;;5044655;28;20062;-83
2022/03/03 00:14:08;;;;;;;51.65;33.03;;;77.30;2227.20;;;;;;5013104;28;20461;-77
2022/03/03 00:16:34;;;;;;;49.35;31.33;;;77.30;2227.20;;;;;;5012740;28;20025;-78
2022/03/03 00:19:00;;;;;;;58.83;33.15;;;77.30;2227.20;;;;;;5012553;28;20052;-77
2022/03/03 00:21:25;;;;;;;53.03;32.45;;;77.30;2227.20;;;;;;5011865;28;20161;-77
2022/03/03 00:23:51;;;;;;;59.40;36.92;;;77.30;2227.20;;;;;;5011835;28;20102;-78
2022/03/03 00:26:17;;;;;;;46.15;29.23;;;77.30;2227.20;;;;;;5043758;28;20037;-85
2022/03/03 00:28:43;;;;;;;53.20;29.60;;;77.30;2227.20;;;;;;5010934;28;20519;-78
2022/03/03 00:31:09;;;;;;;57.63;33.03;;;77.30;2227.20;;;;;;5011946;28;20022;-82
2022/03/03 00:33:35;;;;;;;51.03;30.58;;;77.30;2227.20;;;;;;5008827;28;20021;-80
2022/03/03 00:36:00;;;;;;;49.92;30.75;;;77.20;2227.20;;;;;;5010787;28;20022;-81
2022/03/03 00:38:26;;;;;;;50.35;28.55;;;77.10;2227.20;;;;;;5011797;28;20165;-84
2022/03/03 00:40:52;;;;;;;50.88;27.65;;;77.10;2227.20;;;;;;5012687;28;20042;-79
2022/03/03 00:43:18;;;;;;;48.40;29.55;;;77.10;2227.20;;;;;;5011804;28;20117;-78
2022/03/03 00:45:44;;;;;;;47.97;30.67;;;77.00;2227.20;;;;;;5010962;28;20109;-81
2022/03/03 00:48:09;;;;;;;44.65;27.15;;;77.00;2227.20;;;;;;5009866;28;20469;-84
2022/03/03 00:50:35;;;;;;;45.40;28.50;;;77.00;2227.20;;;;;;5010982;28;20037;-83
2022/03/03 00:53:01;;;;;;;39.92;27.50;;;76.90;2227.20;;;;;;5015603;28;20073;-84
2022/03/03 00:55:27;;;;;;;43.22;24.67;;;76.90;2227.20;;;;;;5014471;28;20030;-82
2022/03/03 00:57:53;;;;;;;43.35;25.73;;;76.90;2227.20;;;;;;5012653;28;20026;-75
2022/03/03 01:00:19;;;;;;;43.53;29.05;;;76.90;2227.20;;;;;;5013794;28;20040;-75
2022/03/03 01:02:46;;;;;;;45.17;25.95;;;76.80;2227.20;;;;;;5014958;28;20022;-77
2022/03/03 01:05:11;;;;;;;48.13;27.52;;;76.80;2227.20;;;;;;5013736;28;20026;-74
2022/03/03 01:07:37;;;;;;;28.60;18.40;;;76.80;2227.20;;;;;;5014988;28;20390;-76
2022/03/03 01:10:05;;;;;;;33.75;22.50;;;52.10;2227.20;;;;;;5014717;28;20049;-75
2022/03/03 01:12:31;;;;;;;39.42;25.00;;;52.10;2227.20;;;;;;5014654;28;20397;-76
2022/03/03 01:14:57;;;;;;;41.05;28.45;;;52.10;2227.20;;;;;;5014803;28;20014;-76
2022/03/03 01:17:22;;;;;;;43.35;26.88;;;52.00;2227.20;;;;;;5014194;28;20109;-75
2022/03/03 01:19:48;;;;;;;41.40;25.77;;;52.00;2227.20;;;;;;5014774;28;20041;-76
2022/03/03 01:22:16;;;;;;;43.53;25.85;;;52.00;2227.20;;;;;;5013804;28;20388;-75
2022/03/03 01:24:42;;;;;;;49.17;26.05;;;51.90;2227.20;;;;;;5015401;28;20055;-76
2022/03/03 01:27:08;;;;;;;44.42;27.90;;;51.90;2227.20;;;;;;5015283;28;20057;-76
2022/03/03 01:29:34;;;;;;;41.05;25.27;;;51.90;2227.20;;;;;;5015232;28;20026;-76
2022/03/03 01:32:00;;;;;;;46.17;28.75;;;51.80;2227.20;;;;;;5015218;28;20072;-76
2022/03/03 01:34:26;;;;;;;41.72;26.73;;;51.80;2227.20;;;;;;5015604;28;20056;-76
2022/03/03 01:36:51;;;;;;;33.67;19.70;;;51.80;2227.20;;;;;;5013833;28;20376;-75
2022/03/03 01:39:18;;;;;;;38.05;21.75;;;51.80;2227.20;;;;;;5015665;28;20098;-78
2022/03/03 01:41:44;;;;;;;39.97;20.05;;;51.90;2227.20;;;;;;5014137;28;20033;-75
2022/03/03 01:44:10;;;;;;;36.67;21.63;;;51.90;2227.20;;;;;;5015563;28;20064;-76
2022/03/03 01:46:36;;;;;;;37.22;23.13;;;51.90;2227.20;;;;;;5015369;28;20028;-76
2022/03/03 01:49:02;;;;;;;40.30;22.58;;;51.80;2227.20;;;;;;5013770;28;20109;-76
2022/03/03 01:51:27;;;;;;;37.90;21.70;;;51.70;2227.20;;;;;;5014548;28;20033;-76
2022/03/03 01:53:53;;;;;;;42.88;22.95;;;51.70;2227.20;;;;;;5014910;28;20026;-76
2022/03/03 01:56:19;;;;;;;42.75;27.60;;;51.70;2227.20;;;;;;5013856;28;20029;-75
2022/03/03 01:58:45;;;;;;;47.38;27.60;;;51.70;2227.20;;;;;;5011894;28;20095;-77
2022/03/03 02:01:14;;;;;;;36.65;20.10;;;51.70;2227.20;;;;;;5012572;28;20034;-76
2022/03/03 02:03:40;;;;;;;47.42;26.40;;;51.60;2227.20;;;;;;5012527;28;20389;-75
2022/03/03 02:06:05;;;;;;;44.08;23.67;;;51.40;2227.20;;;;;;5013341;28;20050;-76
2022/03/03 02:08:31;;;;;;;46.30;28.30;;;51.40;2227.20;;;;;;5014851;28;20030;-76
2022/03/03 02:10:57;;;;;;;41.78;26.95;;;51.40;2227.20;;;;;;5014484;28;20468;-76
2022/03/03 02:13:22;;;;;;;39.35;23.17;;;51.40;2227.20;;;;;;5013473;28;20030;-76
2022/03/03 02:15:53;;;;;;;39.60;22.83;;;51.40;2227.20;;;;;;5030426;28;20134;-75
2022/03/03 02:18:19;;;;;;;34.17;22.55;;;51.50;2227.20;;;;;;4995553;28;20026;-76
2022/03/03 02:20:45;;;;;;;38.35;22.45;;;51.50;2227.20;;;;;;5000669;28;20038;-75
2022/03/03 02:23:10;;;;;;;39.25;25.10;;;51.40;2227.20;;;;;;5013384;28;20076;-74
2022/03/03 02:25:36;;;;;;;37.72;21.80;;;51.50;2227.20;;;;;;5013713;28;20026;-75
2022/03/03 02:28:03;;;;;;;42.17;24.92;;;51.40;2227.20;;;;;;5012930;28;20030;-75
2022/03/03 02:30:28;;;;;;;41.30;26.25;;;51.40;2227.20;;;;;;5012947;28;20052;-76
2022/03/03 02:32:54;;;;;;;32.45;20.58;;;51.40;2227.20;;;;;;5013184;28;20030;-76
2022/03/03 02:35:20;;;;;;;37.33;24.58;;;51.20;2227.20;;;;;;5013067;28;20030;-76
2022/03/03 02:37:46;;;;;;;40.92;25.00;;;26.50;2201.60;;;;;;5014666;28;20076;-76
2022/03/03 02:40:21;;;;;;;49.72;28.98;;;26.50;2201.60;;;;;;5012777;28;20042;-76
2022/03/03 02:42:52;;;;;;;44.25;27.38;;;26.40;2201.60;;;;;;5012916;28;20389;-76
2022/03/03 02:45:19;;;;;;;44.03;27.92;;;26.40;2201.60;;;;;;5014491;28;20075;-76
2022/03/03 02:47:46;;;;;;;44.83;28.33;;;26.30;2201.60;;;;;;5013923;28;20093;-75
2022/03/03 02:50:13;;;;;;;49.58;30.95;;;26.40;2201.60;;;;;;5045937;28;20030;-76
2022/03/03 02:52:39;;;;;;;44.88;28.60;;;26.40;2201.60;;;;;;5014245;28;20022;-76
2022/03/03 02:55:06;;;;;;;51.53;27.63;;;26.40;2201.60;;;;;;5045952;28;20523;-76
2022/03/03 03:00:17;;;;;;;36.47;21.95;;;26.40;2201.60;;;;;;5013608;28;20541;-76
2022/03/03 03:02:43;;;;;;;42.45;25.38;;;26.40;2201.60;;;;;;5011361;28;20117;-75
2022/03/03 03:05:10;;;;;;;44.97;26.65;;;26.40;2201.60;;;;;;5012521;28;20032;-76
2022/03/03 03:07:36;;;;;;;45.75;26.63;;;26.50;2201.60;;;;;;5012932;28;20132;-76
2022/03/03 03:10:04;;;;;;;44.42;26.77;;;26.40;2201.60;;;;;;5012340;28;20034;-76
2022/03/03 03:12:30;;;;;;;46.47;28.20;;;26.40;2201.60;;;;;;5013513;28;20057;-76
2022/03/03 03:14:55;;;;;;;43.70;26.55;;;26.50;2201.60;;;;;;5011460;28;20025;-75
2022/03/03 03:17:22;;;;;;;47.25;27.48;;;26.50;2201.60;;;;;;5013432;28;20040;-76
2022/03/03 03:19:48;;;;;;;44.78;24.30;;;26.50;2201.60;;;;;;5013701;28;20045;-77
2022/03/03 03:22:13;;;;;;;46.70;27.08;;;51.20;2227.20;;;;;;5013297;28;20068;-76
2022/03/03 03:24:39;;;;;;;46.65;28.77;;;51.20;2227.20;;;;;;5013352;28;20025;-77
2022/03/03 03:27:05;;;;;;;39.60;24.15;;;51.20;2227.20;;;;;;5013422;28;20414;-76
2022/03/03 03:29:30;;;;;;;43.58;24.35;;;26.50;2201.60;;;;;;5012089;28;20036;-76
2022/03/03 03:31:56;;;;;;;46.17;25.23;;;26.40;2201.60;;;;;;5011958;28;20094;-76
2022/03/03 03:34:22;;;;;;;40.65;22.73;;;26.50;2201.60;;;;;;5012619;28;20508;-76
2022/03/03 03:36:48;;;;;;;34.40;21.95;;;26.40;2201.60;;;;;;5012329;28;20017;-76
2022/03/03 03:39:14;;;;;;;36.55;21.77;;;26.40;2201.60;;;;;;5013347;28;20066;-76
2022/03/03 03:41:40;;;;;;;45.38;24.67;;;26.40;2201.60;;;;;;5013175;28;20461;-78
2022/03/03 03:44:06;;;;;;;39.75;22.15;;;26.40;2201.60;;;;;;5045003;28;20113;-76
2022/03/03 03:46:31;;;;;;;37.05;25.15;;;26.40;2201.60;;;;;;5011676;28;20034;-76
2022/03/03 03:48:57;;;;;;;44.28;27.50;;;26.40;2201.60;;;;;;5011762;28;20117;-76
2022/03/03 03:51:23;;;;;;;43.25;24.88;;;26.40;2201.60;;;;;;5011719;28;20026;-76
2022/03/03 03:53:49;;;;;;;34.08;21.95;;;26.30;2201.60;;;;;;5012878;28;20483;-76
2022/03/03 03:56:14;;;;;;;49.53;25.98;;;26.30;2201.60;;;;;;5012886;28;20030;-77
2022/03/03 03:58:40;;;;;;;38.60;24.50;;;26.40;2201.60;;;;;;5011599;28;20401;-76
2022/03/03 04:01:06;;;;;;;40.65;26.90;;;26.40;2201.60;;;;;;5011458;28;20129;-76
2022/03/03 04:03:31;;;;;;;43.20;28.52;;;26.40;2201.60;;;;;;5012545;28;20026;-75
2022/03/03 04:05:58;;;;;;;46.67;29.50;;;26.40;2201.60;;;;;;5010518;28;20045;-75
2022/03/03 04:08:23;;;;;;;39.30;26.50;;;26.50;2201.60;;;;;;5011458;28;20549;-76
2022/03/03 04:10:49;;;;;;;49.10;27.33;;;26.50;2201.60;;;;;;5012554;28;20141;-76
2022/03/03 04:13:16;;;;;;;38.03;25.00;;;51.20;2227.20;;;;;;5011441;28;20050;-76
2022/03/03 04:15:42;;;;;;;44.17;29.95;;;51.20;2227.20;;;;;;5011757;28;20022;-76
2022/03/03 04:18:08;;;;;;;39.60;26.55;;;51.20;2227.20;;;;;;5012248;28;20101;-76
2022/03/03 04:20:34;;;;;;;45.38;28.23;;;51.20;2227.20;;;;;;5012485;28;20030;-76
2022/03/03 04:23:00;;;;;;;51.08;28.13;;;51.30;2227.20;;;;;;5011479;28;20088;-76
2022/03/03 04:25:25;;;;;;;38.40;22.00;;;51.50;2227.20;;;;;;5012422;28;20428;-76
2022/03/03 04:27:51;;;;;;;41.22;24.65;;;51.40;2227.20;;;;;;5012358;28;20033;-76
2022/03/03 04:30:17;;;;;;;39.03;24.05;;;51.50;2227.20;;;;;;5012120;28;20482;-76
2022/03/03 04:32:43;;;;;;;41.03;23.25;;;51.60;2227.20;;;;;;5012380;28;20036;-76
2022/03/03 04:35:09;;;;;;;30.40;20.65;;;51.60;2227.20;;;;;;5012098;28;20425;-76
2022/03/03 04:37:36;;;;;;;48.17;24.02;;;51.50;2227.20;;;;;;5011092;28;20021;-76
2022/03/03 04:40:03;;;;;;;42.05;21.70;;;51.60;2227.20;;;;;;5012102;28;20041;-76
2022/03/03 04:42:29;;;;;;;43.38;22.80;;;51.60;2227.20;;;;;;5012140;28;20120;-76
2022/03/03 04:44:54;;;;;;;35.80;20.98;;;51.70;2227.20;;;;;;5012446;28;20129;-76
2022/03/03 04:47:20;;;;;;;33.95;22.45;;;51.80;2227.20;;;;;;5012160;28;20420;-76
2022/03/03 04:49:46;;;;;;;37.45;21.67;;;51.80;2227.20;;;;;;5012153;28;20022;-76
2022/03/03 04:52:11;;;;;;;38.03;21.08;;;51.80;2227.20;;;;;;5012400;28;20069;-76
2022/03/03 04:54:37;;;;;;;39.35;19.98;;;51.80;2227.20;;;;;;5010845;28;20127;-76
2022/03/03 04:57:03;;;;;;;32.45;20.95;;;51.70;2227.20;;;;;;5011791;28;20033;-76
2022/03/03 04:59:29;;;;;;;34.38;18.10;;;51.80;2227.20;;;;;;5011983;28;20068;-76
2022/03/03 05:01:55;;;;;;;40.58;21.48;;;51.70;2227.20;;;;;;5007961;28;20037;-75
2022/03/03 05:04:20;;;;;;;40.40;23.20;;;51.70;2227.20;;;;;;5011817;28;20029;-76
2022/03/03 05:06:47;;;;;;;38.10;22.48;;;51.70;2227.20;;;;;;5010615;28;20500;-77
2022/03/03 05:09:13;;;;;;;34.90;23.90;;;51.70;2227.20;;;;;;5009515;28;20080;-76
2022/03/03 05:11:39;;;;;;;44.88;23.75;;;51.70;2227.20;;;;;;5009909;28;20026;-76
2022/03/03 05:14:05;;;;;;;37.45;22.92;;;51.70;2227.20;;;;;;5009186;28;20552;-76
2022/03/03 05:16:31;;;;;;;36.20;18.00;;;51.70;2227.20;;;;;;5007454;28;20109;-76
2022/03/03 05:18:57;;;;;;;36.63;21.65;;;51.70;2227.20;;;;;;5009751;28;20096;-76
2022/03/03 05:21:22;;;;;;;37.55;20.63;;;51.80;2227.20;;;;;;5010209;28;20473;-76
2022/03/03 05:23:48;;;;;;;36.95;21.95;;;51.80;2227.20;;;;;;5010753;28;20034;-76
2022/03/03 05:26:14;;;;;;;51.78;24.63;;;51.80;2227.20;;;;;;5010598;28;20022;-76
2022/03/03 05:28:40;;;;;;;43.63;22.08;;;51.80;2227.20;;;;;;5008538;28;20393;-76
2022/03/03 05:31:05;;;;;;;32.92;20.90;;;51.80;2227.20;;;;;;5009457;28;20028;-76
2022/03/03 05:33:32;;;;;;;32.75;20.70;;;51.90;2227.20;;;;;;5009627;28;20025;-76
2022/03/03 05:36:01;;;;;;;32.88;22.27;;;51.90;2227.20;;;;;;5009526;28;20033;-76
2022/03/03 05:38:31;;;;;;;36.10;21.35;;;51.90;2227.20;;;;;;5013494;28;20026;-76
2022/03/03 05:40:58;;;;;;;37.53;23.98;;;51.90;2227.20;;;;;;5024644;28;20561;-76
2022/03/03 05:43:25;;;;;;;32.38;20.13;;;51.90;2227.20;;;;;;5014171;28;20022;-76
2022/03/03 05:45:53;;;;;;;28.58;18.30;;;51.90;2227.20;;;;;;4999490;28;20444;-76
2022/03/03 05:48:19;;;;;;;36.30;20.20;;;51.90;2227.20;;;;;;5014482;28;20503;-75
2022/03/03 05:50:46;;;;;;;33.20;20.00;;;51.90;2227.20;;;;;;5012842;28;20109;-75
2022/03/03 05:53:12;;;;;;;41.58;24.77;;;51.90;2227.20;;;;;;5014479;28;20057;-77
2022/03/03 05:55:56;;;;;;;38.40;23.52;;;52.00;2227.20;;;;;;5015836;28;20026;-76
2022/03/03 05:58:25;;;;;;;46.53;22.47;;;52.00;2227.20;;;;;;5011742;28;20026;-76
2022/03/03 06:00:56;;;;;;;48.00;24.58;;;52.00;2227.20;;;;;;5014278;28;20041;-77
2022/03/03 06:03:23;;;;;;;39.55;24.15;;;52.00;2227.20;;;;;;5012569;28;20022;-76
2022/03/03 06:05:58;;;;;;;48.58;25.92;;;52.10;2227.20;;;;;;5000657;28;20181;-76
2022/03/03 06:08:30;;;;;;;54.67;24.50;;;52.10;2227.20;;;;;;5012473;28;20036;-75
2022/03/03 06:11:01;;;;;;;37.72;20.50;;;76.80;2227.20;;;;;;5011555;28;20018;-76
2022/03/03 06:13:34;;;;;;;49.67;25.67;;;76.80;2227.20;;;;;;5012354;28;20140;-75
2022/03/03 06:16:02;;;;;;;32.75;19.33;;;76.90;2227.20;;;;;;5011985;28;20026;-77
2022/03/03 06:18:32;;;;;;;41.10;23.85;;;76.80;2227.20;;;;;;5014306;28;20022;-76
2022/03/03 06:20:58;;;;;;;48.22;27.73;;;76.90;2227.20;;;;;;5013298;28;20073;-75
2022/03/03 06:23:24;;;;;;;42.70;25.10;;;77.00;2227.20;;;;;;5014147;28;20029;-75
2022/03/03 06:25:58;;;;;;;35.40;22.00;;;77.10;2227.20;;;;;;5011665;28;20037;-87
2022/03/03 06:28:24;;;;;;;54.45;26.50;;;77.10;2227.20;;;;;;5014633;28;20414;-85
2022/03/03 06:30:49;;;;;;;34.38;18.58;;;77.10;2227.20;;;;;;5015204;28;20056;-89
2022/03/03 06:33:15;;;;;;;37.55;20.52;;;77.10;2227.20;;;;;;5012763;28;20022;-86
2022/03/03 06:35:41;;;;;;;35.00;20.23;;;77.10;2227.20;;;;;;5013681;28;20026;-84
2022/03/03 06:38:07;;;;;;;32.90;19.55;;;77.10;2227.20;;;;;;5015147;28;20026;-84
2022/03/03 06:40:34;;;;;;;35.25;19.85;;;77.10;2227.20;;;;;;5013555;28;20438;-79
2022/03/03 06:43:03;;;;;;;29.38;17.40;;;77.10;2227.20;;;;;;5012785;28;20121;-88
2022/03/03 06:45:30;;;;;;;34.15;19.90;;;77.10;2227.20;;;;;;5014492;28;20030;-76
2022/03/03 06:47:58;;;;;;;37.85;18.88;;;77.20;2201.60;;;;;;5012825;28;20038;-88
2022/03/03 06:50:24;;;;;;;45.70;22.30;;;77.30;2201.60;;;;;;5013634;28;20469;-89
2022/03/03 06:52:51;;;;;;;28.52;19.10;;;77.30;2227.20;;;;;;5014705;28;20053;-85
2022/03/03 06:55:25;;;;;;;37.70;21.48;;;77.30;2201.60;;;;;;5012041;28;20076;-89
2022/03/03 06:57:54;;;;;;;24.70;14.05;;;77.40;2176.00;;;;;;5012803;28;20037;-86
2022/03/03 07:00:21;;;;;;;19.38;11.73;;;77.40;2150.40;;;;;;5012055;28;20038;-83
2022/03/03 07:02:48;;;;;;;29.15;18.65;;;77.40;2150.40;;;;;;5013626;28;20030;-85
2022/03/03 07:05:17;;;;;;;31.83;17.58;;;77.50;2124.80;;;;;;5012378;28;20026;-85
2022/03/03 07:07:46;;;;;;;37.72;17.35;;;77.50;2124.80;;;;;;5013153;28;20030;-86
2022/03/03 07:10:13;;;;;;;24.23;15.70;;;77.60;2124.80;;;;;;5013512;28;20036;-86
2022/03/03 07:12:40;;;;;;;34.38;19.42;;;77.60;2048.00;;;;;;5014570;28;20022;-82
2022/03/03 07:15:07;;;;;;;31.08;17.38;;;77.60;2048.00;;;;;;5014290;28;20413;-87
2022/03/03 07:17:47;;;;;;;26.17;16.83;;;102.40;2048.00;;;;;;5012641;28;20026;-87
2022/03/03 07:20:36;;;;;;;32.60;17.75;;;102.40;2022.40;;;;;;5013154;28;20037;-83
2022/03/03 07:23:16;;;;;;;28.15;16.40;;;102.40;2022.40;;;;;;5014568;28;20026;-87
2022/03/03 07:25:48;;;;;;;28.33;17.88;;;102.50;2022.40;;;;;;5014023;28;20527;-86
2022/03/03 07:28:14;;;;;;;32.55;16.70;;;102.40;2022.40;;;;;;5014274;28;20029;-85
2022/03/03 07:30:42;;;;;;;25.63;16.05;;;102.40;2022.40;;;;;;5014520;28;20018;-84
2022/03/03 07:33:08;;;;;;;32.17;17.27;;;102.40;2022.40;;;;;;5013267;28;20022;-87
2022/03/03 07:35:35;;;;;;;29.35;19.45;;;102.50;2022.40;;;;;;5013972;28;20489;-86
2022/03/03 07:38:25;;;;;;;35.80;18.20;;;102.70;2048.00;;;;;;5013924;28;20022;-86
2022/03/03 07:40:52;;;;;;;36.92;19.42;;;102.80;2048.00;;;;;;5012758;28;20042;-89
2022/03/03 07:43:19;;;;;;;32.63;18.95;;;102.90;2022.40;;;;;;5013844;28;20045;-87
2022/03/03 07:45:46;;;;;;;32.28;18.85;;;102.90;2048.00;;;;;;5014036;28;20022;-84
2022/03/03 07:48:13;;;;;;;40.92;20.65;;;102.90;2022.40;;;;;;5012876;28;20051;-87
2022/03/03 07:50:40;;;;;;;39.15;21.42;;;103.00;2048.00;;;;;;5013366;28;20462;-87
2022/03/03 07:53:11;;;;;;;33.33;19.98;;;103.10;2022.40;;;;;;5013552;28;20076;-84
2022/03/03 07:55:47;;;;;;;30.42;19.20;;;103.00;1996.80;;;;;;5013662;28;20069;-84
2022/03/03 07:58:25;;;;;;;30.60;16.70;;;103.10;1971.20;;;;;;5012383;28;20034;-84
2022/03/03 08:00:53;;;;;;;37.92;21.35;;;103.00;1996.80;;;;;;5012921;28;20117;-88
2022/03/03 08:03:23;;;;;;;34.10;20.50;;;103.20;1971.20;;;;;;5013404;28;20030;-82
2022/03/03 08:05:51;;;;;;;27.60;16.67;;;103.20;1868.80;;;;;;5013077;28;20089;-84
2022/03/03 08:08:22;;;;;;;35.20;19.85;;;103.20;1817.60;;;;;;5012483;28;20816;-76
2022/03/03 08:10:48;;;;;;;34.75;20.80;;;103.30;1817.60;;;;;;5012112;28;20381;-78
2022/03/03 08:13:16;;;;;;;37.40;22.35;;;128.00;1843.20;;;;;;5011460;28;20022;-82
2022/03/03 08:15:43;;;;;;;21.05;14.13;;;128.10;1792.00;;;;;;5012518;28;20057;-75
2022/03/03 08:18:10;;;;;;;35.72;20.98;;;103.30;1715.20;;;;;;5012511;28;20022;-77
2022/03/03 08:20:38;;;;;;;35.50;21.27;;;128.00;1792.00;;;;;;5012335;28;20038;-76
2022/03/03 08:23:05;;;;;;;34.95;22.13;;;128.00;1740.80;;;;;;5012096;28;20021;-76
2022/03/03 08:25:32;;;;;;;37.42;21.73;;;128.20;1766.40;;;;;;5011948;28;20026;-76
2022/03/03 08:27:58;;;;;;;32.67;18.48;;;128.40;1792.00;;;;;;5011923;28;20029;-75
2022/03/03 08:30:25;;;;;;;31.90;19.02;;;128.50;1740.80;;;;;;5011969;28;20052;-78
2022/03/03 08:33:18;;;;;;;35.60;17.10;;;128.70;1715.20;;;;;;5012314;28;20381;-76
2022/03/03 08:35:57;;;;;;;36.63;19.98;;;128.50;1689.60;;;;;;5012115;28;20022;-75
2022/03/03 08:38:37;;;;;;;26.85;16.65;;;128.70;1689.60;;;;;;5012059;28;20493;-78
2022/03/03 08:41:04;;;;;;;31.38;18.98;;;128.50;1689.60;;;;;;5011745;28;20030;-75
2022/03/03 08:43:32;;;;;;;28.30;17.67;;;128.40;1664.00;;;;;;5011599;28;20049;-75
2022/03/03 08:46:02;;;;;;;34.08;23.50;;;128.50;1715.20;;;;;;5011863;28;20026;-76
2022/03/03 08:48:31;;;;;;;75.68;42.67;;;128.80;1715.20;;;;;;5011923;28;20101;-76
2022/03/03 08:51:01;;;;;;;38.40;22.20;;;153.70;1689.60;;;;;;5011659;28;20072;-76
2022/03/03 08:53:27;;;;;;;29.15;17.77;;;153.80;1664.00;;;;;;5012138;28;20105;-76
2022/03/03 08:55:54;;;;;;;39.80;21.13;;;153.70;1689.60;;;;;;5012073;28;20018;-75
2022/03/03 08:58:21;;;;;;;37.03;20.88;;;153.80;1638.40;;;;;;5011777;28;20041;-76
2022/03/03 09:00:48;;;;;;;31.15;17.33;;;153.70;1612.80;;;;;;4990408;28;20541;-77
2022/03/03 09:03:15;;;;;;;31.88;19.40;;;153.60;1638.40;;;;;;5010820;28;20496;-76
2022/03/03 09:05:42;;;;;;;31.38;18.23;;;153.90;1612.80;;;;;;5008325;28;20042;-76
2022/03/03 09:08:08;;;;;;;23.73;14.80;;;154.10;1638.40;;;;;;5011184;28;20022;-76
2022/03/03 09:10:34;;;;;;;23.00;14.20;;;154.00;1587.20;;;;;;5010799;28;20018;-76
2022/03/03 09:13:00;;;;;;;26.25;16.92;;;154.10;1587.20;;;;;;5013383;28;20102;-75
2022/03/03 09:15:30;;;;;;;27.58;16.45;;;154.10;1587.20;;;;;;5015290;28;20022;-76
2022/03/03 09:17:56;;;;;;;24.25;11.95;;;153.90;1587.20;;;;;;5012777;28;20034;-76
2022/03/03 09:20:22;;;;;;;27.70;16.17;;;154.00;1561.60;;;;;;5013798;28;20080;-76
2022/03/03 09:22:48;;;;;;;20.20;12.18;;;154.00;1587.20;;;;;;5015140;28;20025;-75
2022/03/03 09:25:14;;;;;;;23.60;14.95;;;154.10;1536.00;;;;;;5014336;28;20409;-76
2022/03/03 09:27:40;;;;;;;25.70;16.33;;;154.20;1536.00;;;;;;5015522;28;20045;-76
2022/03/03 09:30:07;;;;;;;27.80;17.80;;;154.20;1561.60;;;;;;4995730;28;20072;-75
2022/03/03 09:32:32;;;;;;;32.08;19.60;;;154.30;1536.00;;;;;;5012065;28;20464;-74
2022/03/03 09:34:58;;;;;;;22.42;14.63;;;154.50;1536.00;;;;;;5015606;28;20064;-75
2022/03/03 09:37:24;;;;;;;26.42;17.98;;;154.40;1510.40;;;;;;5015428;28;20029;-77
2022/03/03 09:39:50;;;;;;;33.20;18.08;;;154.50;1510.40;;;;;;5015253;28;20473;-76
2022/03/03 09:42:17;;;;;;;26.45;16.70;;;154.40;1510.40;;;;;;5014857;28;20523;-77
2022/03/03 09:44:43;;;;;;;27.92;16.88;;;179.20;1510.40;;;;;;5014765;28;20030;-77
2022/03/03 09:47:11;;;;;;;32.08;17.65;;;179.40;1459.20;;;;;;5014390;28;20086;-74
2022/03/03 09:49:37;;;;;;;26.77;15.98;;;179.50;1510.40;;;;;;5014546;28;20404;-76
2022/03/03 09:52:11;;;;;;;24.08;15.43;;;179.70;1459.20;;;;;;5014517;28;20033;-76
2022/03/03 09:54:37;;;;;;;22.58;14.45;;;179.70;1459.20;;;;;;5014717;28;20092;-76
2022/03/03 09:57:03;;;;;;;24.65;16.00;;;179.60;1433.60;;;;;;5013769;28;20458;-77
2022/03/03 09:59:29;;;;;;;32.17;18.33;;;179.80;1459.20;;;;;;5014547;28;20037;-77
2022/03/03 10:02:05;;;;;;;25.90;14.90;;;179.80;1484.80;;;;;;5014857;28;20033;-76
2022/03/03 10:04:31;;;;;;;30.70;16.27;;;179.90;1459.20;;;;;;5015086;28;20041;-76
2022/03/03 10:07:06;;;;;;;24.70;15.52;;;179.80;1433.60;;;;;;5014833;28;20050;-76
2022/03/03 10:09:33;;;;;;;24.17;10.95;;;179.70;1459.20;;;;;;5014822;28;20022;-76
2022/03/03 10:12:06;;;;;;;38.55;20.70;;;179.90;1433.60;;;;;;5014475;28;20026;-77
2022/03/03 10:14:35;;;;;;;34.10;20.75;;;204.80;1433.60;;;;;;5014636;28;20036;-77
2022/03/03 10:17:01;;;;;;;34.78;18.83;;;205.00;1408.00;;;;;;5013845;28;20115;-76
2022/03/03 10:19:27;;;;;;;25.92;17.42;;;205.30;1356.80;;;;;;5013103;28;20026;-74
2022/03/03 10:21:54;;;;;;;31.05;17.30;;;205.30;1382.40;;;;;;5014403;28;20030;-76
2022/03/03 10:24:25;;;;;;;34.75;19.23;;;205.20;1356.80;;;;;;5014064;28;20026;-75
2022/03/03 10:27:07;;;;;;;31.20;18.77;;;205.10;1382.40;;;;;;5014059;28;20396;-75
2022/03/03 10:29:35;;;;;;;36.42;20.52;;;205.70;1356.80;;;;;;5014570;28;20115;-76
2022/03/03 10:32:02;;;;;;;19.80;13.15;;;205.50;1331.20;;;;;;5012886;28;20639;-75
2022/03/03 10:34:37;;;;;;;27.50;17.33;;;205.60;1254.40;;;;;;5013934;28;20088;-76
2022/03/03 10:37:06;;;;;;;28.15;17.88;;;205.60;1305.60;;;;;;5012980;28;20053;-76
2022/03/03 10:39:49;;;;;;;28.42;17.73;;;230.50;1280.00;;;;;;5014361;28;20022;-75
2022/03/03 10:42:24;;;;;;;21.63;11.32;;;230.90;1280.00;;;;;;5014107;28;20031;-75
2022/03/03 10:45:04;;;;;;;28.73;16.98;;;230.80;1254.40;;;;;;5013653;28;20112;-75
2022/03/03 10:47:31;;;;;;;28.67;16.83;;;;;;;;;;5013595;28;20080;-74
2022/03/03 10:49:59;;;;;;;27.95;16.88;;;;;;;;;;5013691;28;20029;-74
2022/03/03 10:52:30;;;;;;;30.08;17.73;;;;;;;;;;5013612;28;20022;-77
2022/03/03 10:55:01;;;;;;;29.83;16.17;;;;;;;;;;5013482;28;20072;-77
2022/03/03 10:57:31;;;;;;;28.98;16.00;;;;;;;;;;5011571;28;20029;-78
2022/03/03 10:59:59;;;;;;;21.70;12.15;;;;;;;;;;5011361;28;20044;-77
2022/03/03 11:02:29;;;;;;;36.05;26.50;;;;;;;;;;5011685;28;20105;-79
2022/03/03 11:04:55;;;;;;;46.67;28.75;;;;;;;;;;5013195;28;20508;-77
2022/03/03 11:07:22;;;;;;;26.60;14.88;;;;;;;;;;5013344;28;20125;-77
2022/03/03 11:09:48;;;;;;;20.40;14.35;;;;;;;;;;5013794;28;20018;-80
2022/03/03 11:12:15;;;;;;;28.52;17.95;;;;;;;;;;5013417;28;20057;-78
2022/03/03 11:14:41;;;;;;;22.23;14.82;;;;;;;;;;5013616;28;20050;-80
2022/03/03 11:17:07;;;;;;;25.50;16.20;;;;;;;;;;5013100;28;20018;-80
2022/03/03 11:19:33;;;;;;;43.05;25.77;;;307.60;1152.00;;;;;;5013376;28;20018;-79
2022/03/03 11:21:59;;;;;;;31.70;19.10;;;332.90;1100.80;;;;;;5014922;28;20033;-78
2022/03/03 11:24:26;;;;;;;23.15;16.70;;;333.10;1049.60;;;;;;5012203;28;20025;-78
2022/03/03 11:26:53;;;;;;;21.88;15.02;;;;;;;;;;5013203;28;20105;-78
2022/03/03 11:29:20;;;;;;;20.02;14.68;;;;;;;;;;5012019;28;20022;-78
2022/03/03 11:32:07;;;;;;;19.35;15.30;;;;;;;;;;5012448;28;20061;-78
2022/03/03 11:34:35;;;;;;;21.45;14.57;;;282.50;1100.80;;;;;;5008710;28;20025;-78
2022/03/03 11:37:22;;;;;;;27.38;17.90;;;282.00;1100.80;;;;;;5012796;28;20025;-78
2022/03/03 11:39:57;;;;;;;22.80;15.13;;;282.40;1126.40;;;;;;5013234;28;20477;-77
2022/03/03 11:42:25;;;;;;;21.17;12.77;;;;;;;;;;5014137;28;20022;-78
2022/03/03 11:44:56;;;;;;;24.30;14.82;;;;;;;;;;5012963;28;20049;-79
2022/03/03 11:47:29;;;;;;;13.43;9.75;;;;;;;;;;5011651;28;20091;-78
2022/03/03 11:50:05;;;;;;;16.70;10.35;;;;;;;;;;5012754;28;20109;-77
2022/03/03 11:52:31;;;;;;;15.90;10.88;;;;;;;;;;5012829;28;20030;-77
2022/03/03 11:55:00;;;;;;;13.70;9.93;;;;;;;;;;5012750;28;20056;-77
2022/03/03 11:57:32;;;;;;;14.50;10.95;;;;;;;;;;5012791;28;20030;-77
2022/03/03 12:00:05;;;;;;;17.55;11.10;;;;;;;;;;5012386;28;20029;-78
2022/03/03 12:02:32;;;;;;;19.65;11.27;;;;;;;;;;5012611;28;20106;-76
2022/03/03 12:05:24;;;;;;;22.75;14.13;;;;;;;;;;5010423;28;20030;-79
2022/03/03 12:07:50;;;;;;;16.73;12.02;;;;;;;;;;5011656;28;20044;-78
2022/03/03 12:10:20;;;;;;;21.00;12.65;;;;;;;;;;5012084;28;20029;-75
2022/03/03 12:12:46;;;;;;;29.42;22.27;;;;;;;;;;5010945;28;20018;-76
2022/03/03 12:15:12;;;;;;;13.18;8.52;;;;;;;;;;5012945;28;20585;-78
2022/03/03 12:17:42;;;;;;;32.65;22.75;;;;;;;;;;5010009;28;21335;-77
2022/03/03 12:20:33;;;;;;;15.40;9.43;;;;;;;;;;5011360;28;20033;-78
2022/03/03 12:23:21;;;;;;;10.23;7.63;;;;;;;;;;5011138;28;20025;-76
2022/03/03 12:25:58;;;;;;;17.48;11.52;;;;;;;;;;5012481;28;20069;-76